Bethlehem, GA (30620)

11:51 PM EDT on July 23, 2016 (GMT -0400)
East of Bethlehem, GA | | Change Station

Elev 732 ft 33.91 °N, 83.66 °W | Updated 8 minutes ago

Clear
Clear
74.5 °F
Feels Like 73 °F
N
0.0
Wind Variable Wind from NNW
Gusts 0.0 mph

Today
High -- | Low -- °F
--% Chance of Precip.
Yesterday
High -- | Low -- °F
Precip. -- in
Pressure 30.07 in
Visibility 10.0 miles
Clouds Clear
Heat Index 73 °F
Dew Point 72 °F
Humidity 91%
Rainfall 0.00 in
Snow Depth Not available.
6:40 AM 8:42 PM
Waning Gibbous, 80% visible
METAR KWDR 240335Z AUTO 00000KT 10SM CLR 25/23 A3007 RMK AO1
Pressure 30.07 in
Visibility 10.0 miles
Clouds Clear
Heat Index 73 °F
Dew Point 72 °F
Humidity 91%
Rainfall 0.00 in
Snow Depth Not available.
6:40 AM 8:42 PM
Waning Gibbous, 80% visible
METAR KWDR 240335Z AUTO 00000KT 10SM CLR 25/23 A3007 RMK AO1

10-Day Weather Forecast

Almanac

Astronomy

Jul. 23, 2016 Rise Set
Actual Time
Civil Twilight
Nautical Twilight
Astronomical Twilight
Moon
Length of Visible Light
Length of Day
Tomorrow will be .
, % of the Moon is Illuminated

Today's Extremes

State Highs State Lows

Community

WunderPhotos

Upload Photos

1,927,022 photos uploaded!

WunderBlog® & News

Nearby

Air Quality

  Air Quality AQ Index Pollutant
Not available.

Snow Depth

Station Depth Elevation

Earthquake Activity

City Distance Mag. Time & Date
Minimum magnitude displayed is 2.5.

Coastal Water Temperatures

Place Temperature

Stations

Nearby Weather Stations

Station Location Temp. Windchill Dew Point Humidity Wind Precip. Elev Updated Type
                   

Watches & Warnings

There are currently no watches in effect.